sensor_id;sensor_type;location;lat;lon;timestamp;pressure;altitude;pressure_sealevel;temperature;humidity
36284;BME280;56085;48.910;9.478;2023-02-28T00:00:21;98875.81;;;-3.05;54.21
36284;BME280;56085;48.910;9.478;2023-02-28T00:02:46;98877.97;;;-3.07;54.73
36284;BME280;56085;48.910;9.478;2023-02-28T00:05:13;98881.22;;;-3.05;54.95
36284;BME280;56085;48.910;9.478;2023-02-28T00:07:38;98872.31;;;-3.06;54.82
36284;BME280;56085;48.910;9.478;2023-02-28T00:10:04;98873.13;;;-3.05;55.06
36284;BME280;56085;48.910;9.478;2023-02-28T00:12:31;98869.59;;;-3.06;55.30
36284;BME280;56085;48.910;9.478;2023-02-28T00:14:56;98870.13;;;-3.09;55.47
36284;BME280;56085;48.910;9.478;2023-02-28T00:17:21;98869.88;;;-3.07;55.45
36284;BME280;56085;48.910;9.478;2023-02-28T00:19:47;98875.00;;;-3.11;55.45
36284;BME280;56085;48.910;9.478;2023-02-28T00:22:13;98868.22;;;-3.08;55.96
36284;BME280;56085;48.910;9.478;2023-02-28T00:24:38;98873.09;;;-3.10;55.97
36284;BME280;56085;48.910;9.478;2023-02-28T00:27:03;98864.66;;;-3.14;56.26
36284;BME280;56085;48.910;9.478;2023-02-28T00:29:28;98872.22;;;-3.16;56.22
36284;BME280;56085;48.910;9.478;2023-02-28T00:31:54;98869.78;;;-3.18;56.43
36284;BME280;56085;48.910;9.478;2023-02-28T00:34:19;98867.63;;;-3.16;56.70
36284;BME280;56085;48.910;9.478;2023-02-28T00:36:44;98865.19;;;-3.17;56.84
36284;BME280;56085;48.910;9.478;2023-02-28T00:39:11;98865.19;;;-3.17;57.18
36284;BME280;56085;48.910;9.478;2023-02-28T00:41:36;98863.56;;;-3.18;57.22
36284;BME280;56085;48.910;9.478;2023-02-28T00:44:01;98869.22;;;-3.20;57.42
36284;BME280;56085;48.910;9.478;2023-02-28T00:46:26;98865.69;;;-3.20;57.73
36284;BME280;56085;48.910;9.478;2023-02-28T00:48:51;98866.53;;;-3.20;57.60
36284;BME280;56085;48.910;9.478;2023-02-28T00:51:17;98867.34;;;-3.19;58.13
36284;BME280;56085;48.910;9.478;2023-02-28T00:53:42;98864.88;;;-3.21;58.18
36284;BME280;56085;48.910;9.478;2023-02-28T00:56:07;98870.56;;;-3.22;58.21
36284;BME280;56085;48.910;9.478;2023-02-28T00:58:32;98863.25;;;-3.22;58.40
36284;BME280;56085;48.910;9.478;2023-02-28T01:00:58;98869.16;;;-3.25;58.51
36284;BME280;56085;48.910;9.478;2023-02-28T01:03:23;98862.63;;;-3.29;58.78
36284;BME280;56085;48.910;9.478;2023-02-28T01:05:48;98866.44;;;-3.30;59.32
36284;BME280;56085;48.910;9.478;2023-02-28T01:08:13;98863.72;;;-3.30;59.29
36284;BME280;56085;48.910;9.478;2023-02-28T01:10:39;98866.44;;;-3.30;59.48
36284;BME280;56085;48.910;9.478;2023-02-28T01:13:04;98860.44;;;-3.32;59.63
36284;BME280;56085;48.910;9.478;2023-02-28T01:15:30;98858.88;;;-3.28;59.63
36284;BME280;56085;48.910;9.478;2023-02-28T01:17:56;98857.81;;;-3.27;59.68
36284;BME280;56085;48.910;9.478;2023-02-28T01:20:22;98851.00;;;-3.29;59.86
36284;BME280;56085;48.910;9.478;2023-02-28T01:22:47;98859.38;;;-3.31;59.99
36284;BME280;56085;48.910;9.478;2023-02-28T01:25:12;98854.53;;;-3.29;60.41
36284;BME280;56085;48.910;9.478;2023-02-28T01:27:37;98863.22;;;-3.27;60.43
36284;BME280;56085;48.910;9.478;2023-02-28T01:30:04;98863.50;;;-3.23;60.59
36284;BME280;56085;48.910;9.478;2023-02-28T01:32:29;98858.88;;;-3.28;60.88
36284;BME280;56085;48.910;9.478;2023-02-28T01:34:55;98856.97;;;-3.27;60.85
36284;BME280;56085;48.910;9.478;2023-02-28T01:37:20;98849.13;;;-3.29;61.09
36284;BME280;56085;48.910;9.478;2023-02-28T01:39:45;98846.41;;;-3.29;61.45
36284;BME280;56085;48.910;9.478;2023-02-28T01:42:10;98853.47;;;-3.28;61.38
36284;BME280;56085;48.910;9.478;2023-02-28T01:47:19;98845.34;;;-3.28;61.60
36284;BME280;56085;48.910;9.478;2023-02-28T01:49:45;98850.75;;;-3.28;61.68
36284;BME280;56085;48.910;9.478;2023-02-28T01:52:10;98843.72;;;-3.29;61.63
36284;BME280;56085;48.910;9.478;2023-02-28T01:54:39;98843.75;;;-3.24;62.15
36284;BME280;56085;48.910;9.478;2023-02-28T01:57:10;98848.91;;;-3.22;62.05
36284;BME280;56085;48.910;9.478;2023-02-28T01:59:41;98850.78;;;-3.23;62.35
36284;BME280;56085;48.910;9.478;2023-02-28T02:02:11;98840.53;;;-3.21;62.54
36284;BME280;56085;48.910;9.478;2023-02-28T02:04:37;98841.59;;;-3.22;62.40
36284;BME280;56085;48.910;9.478;2023-02-28T02:07:03;98840.81;;;-3.22;62.55
36284;BME280;56085;48.910;9.478;2023-02-28T02:09:29;98836.78;;;-3.20;62.66
36284;BME280;56085;48.910;9.478;2023-02-28T02:11:55;98836.00;;;-3.15;62.89
36284;BME280;56085;48.910;9.478;2023-02-28T02:15:03;98832.19;;;-3.14;62.79
36284;BME280;56085;48.910;9.478;2023-02-28T02:27:17;98821.84;;;-2.90;62.93
36284;BME280;56085;48.910;9.478;2023-02-28T02:29:47;98825.94;;;-2.87;62.79
36284;BME280;56085;48.910;9.478;2023-02-28T02:35:05;98822.44;;;-2.83;62.92
36284;BME280;56085;48.910;9.478;2023-02-28T02:37:40;98822.44;;;-2.83;63.29
36284;BME280;56085;48.910;9.478;2023-02-28T02:40:14;98826.78;;;-2.82;63.55
36284;BME280;56085;48.910;9.478;2023-02-28T02:43:15;98825.69;;;-2.81;63.54
36284;BME280;56085;48.910;9.478;2023-02-28T02:45:33;98823.81;;;-2.80;63.38
36284;BME280;56085;48.910;9.478;2023-02-28T02:48:01;98808.38;;;-2.79;63.47
36284;BME280;56085;48.910;9.478;2023-02-28T02:50:29;98816.50;;;-2.79;63.71
36284;BME280;56085;48.910;9.478;2023-02-28T02:52:56;98814.59;;;-2.79;63.92
36284;BME280;56085;48.910;9.478;2023-02-28T02:55:22;98818.41;;;-2.75;63.67
36284;BME280;56085;48.910;9.478;2023-02-28T02:57:52;98826.53;;;-2.75;63.82
36284;BME280;56085;48.910;9.478;2023-02-28T03:00:20;98815.16;;;-2.77;63.86
36284;BME280;56085;48.910;9.478;2023-02-28T03:02:47;98817.03;;;-2.77;64.15
36284;BME280;56085;48.910;9.478;2023-02-28T03:05:19;98823.03;;;-2.75;64.14
36284;BME280;56085;48.910;9.478;2023-02-28T03:07:45;98816.81;;;-2.76;64.20
36284;BME280;56085;48.910;9.478;2023-02-28T03:10:27;98821.69;;;-2.73;64.36
36284;BME280;56085;48.910;9.478;2023-02-28T03:12:57;98813.56;;;-2.73;64.24
36284;BME280;56085;48.910;9.478;2023-02-28T03:15:31;98813.59;;;-2.68;64.17
36284;BME280;56085;48.910;9.478;2023-02-28T03:18:06;98807.91;;;-2.66;64.71
36284;BME280;56085;48.910;9.478;2023-02-28T03:20:35;98801.69;;;-2.67;64.64
36284;BME280;56085;48.910;9.478;2023-02-28T03:25:36;98810.34;;;-2.65;64.65
36284;BME280;56085;48.910;9.478;2023-02-28T03:28:08;98806.59;;;-2.64;64.47
36284;BME280;56085;48.910;9.478;2023-02-28T03:33:04;98812.84;;;-2.58;64.74
36284;BME280;56085;48.910;9.478;2023-02-28T03:35:54;98815.56;;;-2.58;65.01
36284;BME280;56085;48.910;9.478;2023-02-28T03:38:26;98816.94;;;-2.55;65.18
36284;BME280;56085;48.910;9.478;2023-02-28T03:43:53;98812.91;;;-2.48;64.87
36284;BME280;56085;48.910;9.478;2023-02-28T03:46:19;98812.09;;;-2.48;64.82
36284;BME280;56085;48.910;9.478;2023-02-28T03:49:11;98812.63;;;-2.46;64.77
36284;BME280;56085;48.910;9.478;2023-02-28T03:51:32;98819.16;;;-2.42;64.28
36284;BME280;56085;48.910;9.478;2023-02-28T03:54:04;98823.25;;;-2.39;64.46
36284;BME280;56085;48.910;9.478;2023-02-28T03:56:49;98821.34;;;-2.39;64.56
36284;BME280;56085;48.910;9.478;2023-02-28T04:01:48;98820.00;;;-2.36;64.69
36284;BME280;56085;48.910;9.478;2023-02-28T04:04:14;98823.78;;;-2.37;64.61
36284;BME280;56085;48.910;9.478;2023-02-28T04:06:40;98821.34;;;-2.39;64.64
36284;BME280;56085;48.910;9.478;2023-02-28T04:09:07;98819.97;;;-2.41;64.66
36284;BME280;56085;48.910;9.478;2023-02-28T04:11:34;98822.16;;;-2.38;64.43
36284;BME280;56085;48.910;9.478;2023-02-28T04:14:02;98833.28;;;-2.35;64.77
36284;BME280;56085;48.910;9.478;2023-02-28T04:16:29;98829.47;;;-2.34;64.36
36284;BME280;56085;48.910;9.478;2023-02-28T04:18:54;98831.94;;;-2.32;64.52
36284;BME280;56085;48.910;9.478;2023-02-28T04:21:26;98836.00;;;-2.30;64.54
36284;BME280;56085;48.910;9.478;2023-02-28T04:23:52;98836.31;;;-2.26;64.43
36284;BME280;56085;48.910;9.478;2023-02-28T04:26:17;98839.00;;;-2.26;64.57
36284;BME280;56085;48.910;9.478;2023-02-28T04:28:42;98835.50;;;-2.21;64.45
36284;BME280;56085;48.910;9.478;2023-02-28T04:31:08;98836.59;;;-2.22;64.66
36284;BME280;56085;48.910;9.478;2023-02-28T04:33:33;98832.00;;;-2.22;64.67
36284;BME280;56085;48.910;9.478;2023-02-28T04:36:06;98834.72;;;-2.22;64.56
36284;BME280;56085;48.910;9.478;2023-02-28T04:38:33;98836.88;;;-2.19;64.80
36284;BME280;56085;48.910;9.478;2023-02-28T04:40:59;98842.03;;;-2.17;64.73
36284;BME280;56085;48.910;9.478;2023-02-28T04:43:27;98831.75;;;-2.15;64.94
36284;BME280;56085;48.910;9.478;2023-02-28T04:45:53;98831.22;;;-2.12;65.12
36284;BME280;56085;48.910;9.478;2023-02-28T04:48:21;98835.81;;;-2.13;64.80
36284;BME280;56085;48.910;9.478;2023-02-28T04:50:46;98823.06;;;-2.12;65.06
36284;BME280;56085;48.910;9.478;2023-02-28T04:53:12;98819.84;;;-2.09;64.72
36284;BME280;56085;48.910;9.478;2023-02-28T04:55:37;98825.53;;;-2.11;64.93
36284;BME280;56085;48.910;9.478;2023-02-28T04:58:04;98827.97;;;-2.09;65.09
36284;BME280;56085;48.910;9.478;2023-02-28T05:00:30;98833.94;;;-2.07;65.37
36284;BME280;56085;48.910;9.478;2023-02-28T05:02:55;98838.81;;;-2.09;65.26
36284;BME280;56085;48.910;9.478;2023-02-28T05:05:20;98838.28;;;-2.06;65.13
36284;BME280;56085;48.910;9.478;2023-02-28T05:07:45;98829.34;;;-2.06;64.90
36284;BME280;56085;48.910;9.478;2023-02-28T05:10:11;98834.75;;;-2.06;65.05
36284;BME280;56085;48.910;9.478;2023-02-28T05:12:36;98822.00;;;-2.06;64.95
36284;BME280;56085;48.910;9.478;2023-02-28T05:15:01;98820.94;;;-2.05;65.42
36284;BME280;56085;48.910;9.478;2023-02-28T05:17:27;98825.03;;;-2.02;64.84
36284;BME280;56085;48.910;9.478;2023-02-28T05:19:52;98829.38;;;-2.01;65.33
36284;BME280;56085;48.910;9.478;2023-02-28T05:22:17;98830.19;;;-2.01;65.10
36284;BME280;56085;48.910;9.478;2023-02-28T05:24:42;98832.88;;;-2.01;65.11
36284;BME280;56085;48.910;9.478;2023-02-28T05:27:08;98828.84;;;-1.98;64.78
36284;BME280;56085;48.910;9.478;2023-02-28T05:29:33;98830.44;;;-1.97;64.46
36284;BME280;56085;48.910;9.478;2023-02-28T05:31:59;98832.63;;;-1.99;64.46
36284;BME280;56085;48.910;9.478;2023-02-28T05:34:24;98835.31;;;-1.99;64.57
36284;BME280;56085;48.910;9.478;2023-02-28T05:36:49;98836.97;;;-1.98;64.46
36284;BME280;56085;48.910;9.478;2023-02-28T05:39:14;98831.00;;;-1.95;64.04
36284;BME280;56085;48.910;9.478;2023-02-28T05:41:40;98830.47;;;-1.92;64.36
36284;BME280;56085;48.910;9.478;2023-02-28T05:44:05;98831.53;;;-1.93;63.94
36284;BME280;56085;48.910;9.478;2023-02-28T05:46:30;98836.16;;;-1.94;64.01
36284;BME280;56085;48.910;9.478;2023-02-28T05:48:56;98829.66;;;-1.92;63.79
36284;BME280;56085;48.910;9.478;2023-02-28T05:51:22;98835.63;;;-1.90;64.29
36284;BME280;56085;48.910;9.478;2023-02-28T05:53:47;98830.47;;;-1.92;63.98
36284;BME280;56085;48.910;9.478;2023-02-28T05:56:14;98834.81;;;-1.91;63.94
36284;BME280;56085;48.910;9.478;2023-02-28T05:58:39;98832.38;;;-1.92;64.01
36284;BME280;56085;48.910;9.478;2023-02-28T06:03:48;98835.91;;;-1.92;63.62
36284;BME280;56085;48.910;9.478;2023-02-28T06:06:13;98838.06;;;-1.94;63.90
36284;BME280;56085;48.910;9.478;2023-02-28T06:08:38;98842.94;;;-1.91;64.20
36284;BME280;56085;48.910;9.478;2023-02-28T06:11:04;98837.25;;;-1.89;64.10
36284;BME280;56085;48.910;9.478;2023-02-28T06:13:29;98846.50;;;-1.85;64.34
36284;BME280;56085;48.910;9.478;2023-02-28T06:15:54;98841.34;;;-1.87;63.76
36284;BME280;56085;48.910;9.478;2023-02-28T06:18:19;98846.22;;;-1.84;64.13
36284;BME280;56085;48.910;9.478;2023-02-28T06:20:45;98847.84;;;-1.83;63.66
36284;BME280;56085;48.910;9.478;2023-02-28T06:23:18;98860.88;;;-1.80;64.25
36284;BME280;56085;48.910;9.478;2023-02-28T06:25:44;98855.44;;;-1.80;63.76
36284;BME280;56085;48.910;9.478;2023-02-28T06:28:09;98860.88;;;-1.80;63.79
36284;BME280;56085;48.910;9.478;2023-02-28T06:30:36;98862.50;;;-1.79;63.88
36284;BME280;56085;48.910;9.478;2023-02-28T06:33:01;98856.00;;;-1.78;63.38
36284;BME280;56085;48.910;9.478;2023-02-28T06:35:26;98856.28;;;-1.79;63.41
36284;BME280;56085;48.910;9.478;2023-02-28T06:37:52;98857.91;;;-1.78;63.85
36284;BME280;56085;48.910;9.478;2023-02-28T06:40:17;98871.19;;;-1.77;63.75
36284;BME280;56085;48.910;9.478;2023-02-28T06:42:42;98870.38;;;-1.77;63.62
36284;BME280;56085;48.910;9.478;2023-02-28T06:45:07;98871.19;;;-1.77;63.96
36284;BME280;56085;48.910;9.478;2023-02-28T06:47:34;98868.50;;;-1.71;63.93
36284;BME280;56085;48.910;9.478;2023-02-28T06:49:59;98873.09;;;-1.72;63.73
36284;BME280;56085;48.910;9.478;2023-02-28T06:52:26;98868.50;;;-1.71;63.76
36284;BME280;56085;48.910;9.478;2023-02-28T06:54:51;98872.84;;;-1.70;63.55
36284;BME280;56085;48.910;9.478;2023-02-28T06:57:24;98873.66;;;-1.75;63.98
36284;BME280;56085;48.910;9.478;2023-02-28T06:59:50;98892.88;;;-1.71;63.57
36284;BME280;56085;48.910;9.478;2023-02-28T07:02:15;98874.22;;;-1.68;63.61
36284;BME280;56085;48.910;9.478;2023-02-28T07:04:40;98887.78;;;-1.68;63.55
36284;BME280;56085;48.910;9.478;2023-02-28T07:07:08;98886.66;;;-1.67;63.04
36284;BME280;56085;48.910;9.478;2023-02-28T07:09:33;98887.22;;;-1.60;63.37
36284;BME280;56085;48.910;9.478;2023-02-28T07:11:59;98887.50;;;-1.61;63.10
36284;BME280;56085;48.910;9.478;2023-02-28T07:14:25;98895.94;;;-1.58;63.32
36284;BME280;56085;48.910;9.478;2023-02-28T07:16:50;98892.41;;;-1.53;63.13
36284;BME280;56085;48.910;9.478;2023-02-28T07:19:16;98894.84;;;-1.46;62.95
36284;BME280;56085;48.910;9.478;2023-02-28T07:21:41;98890.25;;;-1.41;62.81
36284;BME280;56085;48.910;9.478;2023-02-28T07:24:06;98882.16;;;-1.35;63.20
36284;BME280;56085;48.910;9.478;2023-02-28T07:26:31;98890.81;;;-1.33;62.87
36284;BME280;56085;48.910;9.478;2023-02-28T07:28:59;98897.09;;;-1.28;62.61
36284;BME280;56085;48.910;9.478;2023-02-28T07:31:24;98900.63;;;-1.22;62.32
36284;BME280;56085;48.910;9.478;2023-02-28T07:33:49;98897.91;;;-1.17;62.55
36284;BME280;56085;48.910;9.478;2023-02-28T07:36:15;98907.44;;;-1.09;62.41
36284;BME280;56085;48.910;9.478;2023-02-28T07:38:43;98902.81;;;-1.03;62.14
36284;BME280;56085;48.910;9.478;2023-02-28T07:41:08;98906.06;;;-1.01;62.14
36284;BME280;56085;48.910;9.478;2023-02-28T07:43:34;98901.19;;;-0.99;62.33
36284;BME280;56085;48.910;9.478;2023-02-28T07:46:09;98911.50;;;-0.91;61.41
36284;BME280;56085;48.910;9.478;2023-02-28T07:48:34;98909.59;;;-0.91;61.65
36284;BME280;56085;48.910;9.478;2023-02-28T07:50:59;98909.06;;;-0.82;61.09
36284;BME280;56085;48.910;9.478;2023-02-28T07:53:25;98909.91;;;-0.77;60.75
36284;BME280;56085;48.910;9.478;2023-02-28T07:55:51;98909.06;;;-0.72;60.65
36284;BME280;56085;48.910;9.478;2023-02-28T07:58:19;98908.53;;;-0.64;60.44
36284;BME280;56085;48.910;9.478;2023-02-28T08:00:44;98915.59;;;-0.58;61.11
36284;BME280;56085;48.910;9.478;2023-02-28T08:03:11;98918.56;;;-0.54;60.87
36284;BME280;56085;48.910;9.478;2023-02-28T08:05:40;98918.56;;;-0.54;60.33
36284;BME280;56085;48.910;9.478;2023-02-28T08:08:05;98919.66;;;-0.50;60.21
36284;BME280;56085;48.910;9.478;2023-02-28T08:10:30;98914.50;;;-0.46;60.22
36284;BME280;56085;48.910;9.478;2023-02-28T08:12:56;98915.59;;;-0.42;60.12
36284;BME280;56085;48.910;9.478;2023-02-28T08:15:21;98915.28;;;-0.36;59.87
36284;BME280;56085;48.910;9.478;2023-02-28T08:17:46;98915.56;;;-0.27;59.64
36284;BME280;56085;48.910;9.478;2023-02-28T08:20:11;98910.13;;;-0.22;59.51
36284;BME280;56085;48.910;9.478;2023-02-28T08:22:36;98908.75;;;-0.09;58.43
36284;BME280;56085;48.910;9.478;2023-02-28T08:25:02;98916.88;;;0.02;58.44
36284;BME280;56085;48.910;9.478;2023-02-28T08:27:27;98912.47;;;0.11;58.69
36284;BME280;56085;48.910;9.478;2023-02-28T08:29:52;98910.00;;;0.20;57.95
36284;BME280;56085;48.910;9.478;2023-02-28T08:32:20;98913.53;;;0.25;58.48
36284;BME280;56085;48.910;9.478;2023-02-28T08:34:45;98907.47;;;0.39;57.55
36284;BME280;56085;48.910;9.478;2023-02-28T08:37:10;98900.94;;;0.40;58.08
36284;BME280;56085;48.910;9.478;2023-02-28T08:39:36;98918.03;;;0.56;57.50
36284;BME280;56085;48.910;9.478;2023-02-28T08:42:02;98900.00;;;0.60;56.97
36284;BME280;56085;48.910;9.478;2023-02-28T08:44:27;98904.00;;;0.78;57.19
36284;BME280;56085;48.910;9.478;2023-02-28T08:46:52;98909.88;;;0.95;56.19
36284;BME280;56085;48.910;9.478;2023-02-28T08:49:18;98909.53;;;1.07;56.62
36284;BME280;56085;48.910;9.478;2023-02-28T08:51:43;98900.94;;;1.24;56.41
36284;BME280;56085;48.910;9.478;2023-02-28T08:54:08;98913.44;;;1.30;55.58
36284;BME280;56085;48.910;9.478;2023-02-28T08:56:34;98909.81;;;1.40;55.72
36284;BME280;56085;48.910;9.478;2023-02-28T08:58:59;98910.59;;;1.46;55.42
36284;BME280;56085;48.910;9.478;2023-02-28T09:01:25;98909.59;;;1.66;54.29
36284;BME280;56085;48.910;9.478;2023-02-28T09:03:52;98917.66;;;1.76;54.77
36284;BME280;56085;48.910;9.478;2023-02-28T09:06:18;98904.22;;;1.85;54.40
36284;BME280;56085;48.910;9.478;2023-02-28T09:08:44;98906.03;;;1.95;54.16
36284;BME280;56085;48.910;9.478;2023-02-28T09:11:09;98906.84;;;2.19;53.73
36284;BME280;56085;48.910;9.478;2023-02-28T09:13:35;98905.84;;;2.34;53.53
36284;BME280;56085;48.910;9.478;2023-02-28T09:16:02;98905.13;;;2.48;53.30
36284;BME280;56085;48.910;9.478;2023-02-28T09:18:27;98905.59;;;2.55;52.50
36284;BME280;56085;48.910;9.478;2023-02-28T09:20:53;98901.75;;;2.56;52.10
36284;BME280;56085;48.910;9.478;2023-02-28T09:23:18;98905.97;;;2.67;52.19
36284;BME280;56085;48.910;9.478;2023-02-28T09:25:50;98907.28;;;2.70;51.64
36284;BME280;56085;48.910;9.478;2023-02-28T09:28:16;98907.75;;;2.77;51.33
36284;BME280;56085;48.910;9.478;2023-02-28T09:30:42;98914.41;;;2.90;51.01
36284;BME280;56085;48.910;9.478;2023-02-28T09:33:08;98897.28;;;2.84;50.79
36284;BME280;56085;48.910;9.478;2023-02-28T09:35:33;98901.09;;;2.83;50.63
36284;BME280;56085;48.910;9.478;2023-02-28T09:37:58;98912.91;;;2.97;50.28
36284;BME280;56085;48.910;9.478;2023-02-28T09:40:24;98907.44;;;3.17;50.26
36284;BME280;56085;48.910;9.478;2023-02-28T09:42:54;98911.59;;;3.14;50.13
36284;BME280;56085;48.910;9.478;2023-02-28T09:45:30;98903.44;;;3.28;49.43
36284;BME280;56085;48.910;9.478;2023-02-28T09:47:58;98916.34;;;3.41;49.33
36284;BME280;56085;48.910;9.478;2023-02-28T09:52:54;98907.16;;;3.51;48.75
36284;BME280;56085;48.910;9.478;2023-02-28T09:55:28;98905.97;;;3.57;48.52
36284;BME280;56085;48.910;9.478;2023-02-28T09:57:54;98913.63;;;3.74;48.36
36284;BME280;56085;48.910;9.478;2023-02-28T10:00:23;98909.59;;;3.86;48.13
36284;BME280;56085;48.910;9.478;2023-02-28T10:02:53;98911.72;;;4.02;47.83
36284;BME280;56085;48.910;9.478;2023-02-28T10:05:23;98916.31;;;4.21;47.83
36284;BME280;56085;48.910;9.478;2023-02-28T10:08:02;98912.13;;;4.37;47.41
36284;BME280;56085;48.910;9.478;2023-02-28T10:10:40;98920.22;;;4.70;47.30
36284;BME280;56085;48.910;9.478;2023-02-28T10:14:10;98931.50;;;4.69;47.03
36284;BME280;56085;48.910;9.478;2023-02-28T10:16:06;98926.84;;;5.06;46.64
36284;BME280;56085;48.910;9.478;2023-02-28T10:21:09;98921.94;;;5.62;46.32
36284;BME280;56085;48.910;9.478;2023-02-28T10:23:38;98927.94;;;5.95;46.05
36284;BME280;56085;48.910;9.478;2023-02-28T10:26:13;98920.50;;;6.19;45.46
36284;BME280;56085;48.910;9.478;2023-02-28T10:28:41;98926.88;;;6.37;44.74
36284;BME280;56085;48.910;9.478;2023-02-28T10:31:08;98929.72;;;6.63;44.41
36284;BME280;56085;48.910;9.478;2023-02-28T10:33:36;98929.25;;;6.78;44.66
36284;BME280;56085;48.910;9.478;2023-02-28T10:36:02;98920.22;;;7.04;44.58
36284;BME280;56085;48.910;9.478;2023-02-28T10:38:28;98923.13;;;7.08;44.10
36284;BME280;56085;48.910;9.478;2023-02-28T10:41:10;98916.34;;;7.14;43.96
36284;BME280;56085;48.910;9.478;2023-02-28T10:43:36;98916.28;;;6.79;42.64
36284;BME280;56085;48.910;9.478;2023-02-28T10:48:34;98913.59;;;7.31;42.32
36284;BME280;56085;48.910;9.478;2023-02-28T10:51:01;98915.53;;;7.48;42.42
36284;BME280;56085;48.910;9.478;2023-02-28T10:53:39;98917.47;;;7.48;41.82
36284;BME280;56085;48.910;9.478;2023-02-28T11:01:19;98920.28;;;8.43;41.23
36284;BME280;56085;48.910;9.478;2023-02-28T11:03:44;98916.53;;;8.56;40.90
36284;BME280;56085;48.910;9.478;2023-02-28T11:08:45;98913.56;;;8.91;40.53
36284;BME280;56085;48.910;9.478;2023-02-28T11:11:10;98903.03;;;8.63;40.31
36284;BME280;56085;48.910;9.478;2023-02-28T11:13:36;98891.44;;;9.00;39.52
36284;BME280;56085;48.910;9.478;2023-02-28T11:16:06;98895.66;;;8.76;40.15
36284;BME280;56085;48.910;9.478;2023-02-28T11:18:37;98896.06;;;8.87;39.13
36284;BME280;56085;48.910;9.478;2023-02-28T11:21:05;98901.84;;;8.64;39.54
36284;BME280;56085;48.910;9.478;2023-02-28T11:23:31;98898.06;;;8.78;39.10
36284;BME280;56085;48.910;9.478;2023-02-28T11:26:00;98898.75;;;8.45;38.86
36284;BME280;56085;48.910;9.478;2023-02-28T11:28:27;98895.47;;;9.02;39.12
36284;BME280;56085;48.910;9.478;2023-02-28T11:30:59;98894.97;;;9.00;38.36
36284;BME280;56085;48.910;9.478;2023-02-28T11:33:28;98894.56;;;9.11;38.16
36284;BME280;56085;48.910;9.478;2023-02-28T11:36:00;98894.44;;;8.86;37.95
36284;BME280;56085;48.910;9.478;2023-02-28T11:38:26;98896.19;;;9.12;37.74
36284;BME280;56085;48.910;9.478;2023-02-28T11:48:15;98892.25;;;10.13;36.90
36284;BME280;56085;48.910;9.478;2023-02-28T11:50:47;98884.56;;;10.31;36.85
36284;BME280;56085;48.910;9.478;2023-02-28T11:55:53;98880.78;;;10.48;36.41
36284;BME280;56085;48.910;9.478;2023-02-28T11:58:55;98883.31;;;10.41;36.58
36284;BME280;56085;48.910;9.478;2023-02-28T12:03:53;98883.88;;;10.83;36.47
36284;BME280;56085;48.910;9.478;2023-02-28T12:06:25;98886.41;;;10.89;35.96
36284;BME280;56085;48.910;9.478;2023-02-28T12:09:00;98883.63;;;11.01;35.95
36284;BME280;56085;48.910;9.478;2023-02-28T12:11:40;98880.91;;;11.45;35.74
36284;BME280;56085;48.910;9.478;2023-02-28T12:16:47;98875.88;;;11.63;35.26
36284;BME280;56085;48.910;9.478;2023-02-28T12:19:26;98872.22;;;12.19;34.69
36284;BME280;56085;48.910;9.478;2023-02-28T12:26:46;98867.81;;;12.50;34.41
36284;BME280;56085;48.910;9.478;2023-02-28T12:29:22;98867.25;;;12.96;34.10
36284;BME280;56085;48.910;9.478;2023-02-28T12:34:22;98865.59;;;13.70;33.70
36284;BME280;56085;48.910;9.478;2023-02-28T12:36:50;98862.88;;;14.43;33.13
36284;BME280;56085;48.910;9.478;2023-02-28T12:39:24;98872.25;;;16.20;33.08
36284;BME280;56085;48.910;9.478;2023-02-28T12:41:52;98885.88;;;21.49;33.21
36284;BME280;56085;48.910;9.478;2023-02-28T12:44:32;98877.16;;;25.28;32.81
36284;BME280;56085;48.910;9.478;2023-02-28T12:47:02;98850.38;;;27.44;32.32
36284;BME280;56085;48.910;9.478;2023-02-28T12:49:38;98871.91;;;28.67;31.65
36284;BME280;56085;48.910;9.478;2023-02-28T12:52:04;98864.03;;;28.81;30.53
36284;BME280;56085;48.910;9.478;2023-02-28T12:56:58;98840.16;;;30.04;29.30
36284;BME280;56085;48.910;9.478;2023-02-28T13:02:00;98872.94;;;30.00;27.87
36284;BME280;56085;48.910;9.478;2023-02-28T13:09:51;98826.09;;;28.93;26.41
36284;BME280;56085;48.910;9.478;2023-02-28T13:12:17;98840.41;;;29.64;25.81
36284;BME280;56085;48.910;9.478;2023-02-28T13:14:43;98835.44;;;29.31;25.35
36284;BME280;56085;48.910;9.478;2023-02-28T13:19:46;98833.81;;;28.93;24.31
36284;BME280;56085;48.910;9.478;2023-02-28T13:25:01;98843.94;;;29.03;23.74
36284;BME280;56085;48.910;9.478;2023-02-28T13:27:36;98836.63;;;28.46;23.44
36284;BME280;56085;48.910;9.478;2023-02-28T13:33:17;98817.06;;;27.23;22.91
36284;BME280;56085;48.910;9.478;2023-02-28T13:35:37;98810.47;;;27.04;22.59
36284;BME280;56085;48.910;9.478;2023-02-28T13:38:22;98801.59;;;27.37;22.37
36284;BME280;56085;48.910;9.478;2023-02-28T13:40:47;98794.88;;;27.08;22.15
36284;BME280;56085;48.910;9.478;2023-02-28T13:43:13;98805.44;;;27.52;21.98
36284;BME280;56085;48.910;9.478;2023-02-28T13:45:44;98829.13;;;27.58;22.00
36284;BME280;56085;48.910;9.478;2023-02-28T13:48:27;98800.41;;;27.56;21.47
36284;BME280;56085;48.910;9.478;2023-02-28T13:50:54;98795.09;;;27.99;21.21
36284;BME280;56085;48.910;9.478;2023-02-28T13:53:26;98821.28;;;28.53;21.02
36284;BME280;56085;48.910;9.478;2023-02-28T14:06:36;98813.28;;;29.16;19.78
36284;BME280;56085;48.910;9.478;2023-02-28T14:09:06;98841.66;;;28.51;19.72
36284;BME280;56085;48.910;9.478;2023-02-28T14:11:40;98824.50;;;28.92;19.76
36284;BME280;56085;48.910;9.478;2023-02-28T14:14:07;98818.84;;;27.51;19.57
36284;BME280;56085;48.910;9.478;2023-02-28T14:16:37;98822.16;;;27.50;19.46
36284;BME280;56085;48.910;9.478;2023-02-28T14:19:26;98803.88;;;27.92;19.12
36284;BME280;56085;48.910;9.478;2023-02-28T14:22:00;98827.31;;;28.55;19.00
36284;BME280;56085;48.910;9.478;2023-02-28T14:29:41;98800.44;;;28.56;18.77
36284;BME280;56085;48.910;9.478;2023-02-28T14:37:33;98794.13;;;29.26;18.04
36284;BME280;56085;48.910;9.478;2023-02-28T14:40:01;98812.44;;;28.51;18.06
36284;BME280;56085;48.910;9.478;2023-02-28T14:42:35;98821.19;;;28.75;18.12
36284;BME280;56085;48.910;9.478;2023-02-28T14:45:03;98829.03;;;28.43;17.86
36284;BME280;56085;48.910;9.478;2023-02-28T14:47:30;98829.25;;;29.04;17.74
36284;BME280;56085;48.910;9.478;2023-02-28T14:49:56;98838.25;;;29.40;17.50
36284;BME280;56085;48.910;9.478;2023-02-28T14:52:23;98839.50;;;29.20;17.54